sensor_id;sensor_type;location;lat;lon;timestamp;pressure;altitude;pressure_sealevel;temperature;humidity
69528;BME280;57136;51.986;4.468;2023-01-06T00:00:06;101814.63;;;11.11;100.00
69528;BME280;57136;51.986;4.468;2023-01-06T00:02:31;101804.13;;;11.09;100.00
69528;BME280;57136;51.986;4.468;2023-01-06T00:04:56;101806.03;;;11.18;100.00
69528;BME280;57136;51.986;4.468;2023-01-06T00:07:22;101782.41;;;11.09;100.00
69528;BME280;57136;51.986;4.468;2023-01-06T00:09:47;101798.19;;;11.18;100.00
69528;BME280;57136;51.986;4.468;2023-01-06T00:12:12;101792.97;;;11.18;100.00
69528;BME280;57136;51.986;4.468;2023-01-06T00:14:38;101789.56;;;11.22;100.00
69528;BME280;57136;51.986;4.468;2023-01-06T00:17:03;101785.19;;;11.20;100.00
69528;BME280;57136;51.986;4.468;2023-01-06T00:19:28;101788.72;;;11.22;100.00
69528;BME280;57136;51.986;4.468;2023-01-06T00:21:54;101787.25;;;11.39;100.00
69528;BME280;57136;51.986;4.468;2023-01-06T00:24:19;101779.03;;;11.16;100.00
69528;BME280;57136;51.986;4.468;2023-01-06T00:26:44;101790.31;;;11.15;100.00
69528;BME280;57136;51.986;4.468;2023-01-06T00:29:10;101793.22;;;11.32;100.00
69528;BME280;57136;51.986;4.468;2023-01-06T00:31:38;101789.50;;;11.18;100.00
69528;BME280;57136;51.986;4.468;2023-01-06T00:34:03;101791.44;;;11.28;100.00
69528;BME280;57136;51.986;4.468;2023-01-06T00:36:29;101776.47;;;11.19;100.00
69528;BME280;57136;51.986;4.468;2023-01-06T00:38:54;101776.47;;;11.18;100.00
69528;BME280;57136;51.986;4.468;2023-01-06T00:41:20;101767.78;;;11.19;100.00
69528;BME280;57136;51.986;4.468;2023-01-06T00:44:04;101774.88;;;11.28;100.00
69528;BME280;57136;51.986;4.468;2023-01-06T00:46:30;101762.34;;;11.06;100.00
69528;BME280;57136;51.986;4.468;2023-01-06T00:49:00;101753.72;;;11.09;100.00
69528;BME280;57136;51.986;4.468;2023-01-06T00:51:27;101764.50;;;11.31;100.00
69528;BME280;57136;51.986;4.468;2023-01-06T00:53:52;101738.63;;;10.92;100.00
69528;BME280;57136;51.986;4.468;2023-01-06T00:56:18;101755.38;;;11.05;100.00
69528;BME280;57136;51.986;4.468;2023-01-06T00:58:44;101751.22;;;11.17;100.00
69528;BME280;57136;51.986;4.468;2023-01-06T01:01:10;101758.06;;;11.10;100.00
69528;BME280;57136;51.986;4.468;2023-01-06T01:03:37;101749.25;;;11.03;100.00
69528;BME280;57136;51.986;4.468;2023-01-06T01:06:05;101744.06;;;11.05;100.00
69528;BME280;57136;51.986;4.468;2023-01-06T01:08:31;101739.78;;;11.08;100.00
69528;BME280;57136;51.986;4.468;2023-01-06T01:11:04;101749.41;;;11.13;100.00
69528;BME280;57136;51.986;4.468;2023-01-06T01:13:29;101749.59;;;11.23;100.00
69528;BME280;57136;51.986;4.468;2023-01-06T01:15:55;101745.34;;;11.30;100.00
69528;BME280;57136;51.986;4.468;2023-01-06T01:18:20;101741.81;;;11.25;100.00
69528;BME280;57136;51.986;4.468;2023-01-06T01:20:45;101738.19;;;11.17;100.00
69528;BME280;57136;51.986;4.468;2023-01-06T01:23:11;101742.50;;;11.15;100.00
69528;BME280;57136;51.986;4.468;2023-01-06T01:25:36;101738.13;;;11.14;100.00
69528;BME280;57136;51.986;4.468;2023-01-06T01:28:02;101736.38;;;11.13;100.00
69528;BME280;57136;51.986;4.468;2023-01-06T01:30:27;101730.34;;;11.17;100.00
69528;BME280;57136;51.986;4.468;2023-01-06T01:32:53;101726.78;;;11.10;100.00
69528;BME280;57136;51.986;4.468;2023-01-06T01:35:18;101719.81;;;11.11;100.00
69528;BME280;57136;51.986;4.468;2023-01-06T01:37:43;101719.53;;;10.93;100.00
69528;BME280;57136;51.986;4.468;2023-01-06T01:40:09;101719.00;;;11.13;100.00
69528;BME280;57136;51.986;4.468;2023-01-06T01:42:35;101708.25;;;10.94;100.00
69528;BME280;57136;51.986;4.468;2023-01-06T01:45:05;101712.94;;;11.14;100.00
69528;BME280;57136;51.986;4.468;2023-01-06T01:47:43;101704.44;;;11.28;100.00
69528;BME280;57136;51.986;4.468;2023-01-06T01:50:15;101699.56;;;10.96;100.00
69528;BME280;57136;51.986;4.468;2023-01-06T01:52:43;101676.31;;;11.08;100.00
69528;BME280;57136;51.986;4.468;2023-01-06T01:55:09;101676.31;;;11.08;100.00
69528;BME280;57136;51.986;4.468;2023-01-06T01:57:43;101680.50;;;10.98;100.00
69528;BME280;57136;51.986;4.468;2023-01-06T02:00:12;101684.81;;;10.96;100.00
69528;BME280;57136;51.986;4.468;2023-01-06T02:02:37;101679.78;;;11.07;100.00
69528;BME280;57136;51.986;4.468;2023-01-06T02:05:04;101674.81;;;11.24;100.00
69528;BME280;57136;51.986;4.468;2023-01-06T02:07:31;101666.78;;;11.10;100.00
69528;BME280;57136;51.986;4.468;2023-01-06T02:10:12;101684.09;;;11.05;100.00
69528;BME280;57136;51.986;4.468;2023-01-06T02:12:39;101679.09;;;11.19;100.00
69528;BME280;57136;51.986;4.468;2023-01-06T02:15:15;101675.47;;;11.11;100.00
69528;BME280;57136;51.986;4.468;2023-01-06T02:18:01;101683.13;;;11.00;100.00
69528;BME280;57136;51.986;4.468;2023-01-06T02:34:24;101653.75;;;11.12;100.00
69528;BME280;57136;51.986;4.468;2023-01-06T02:37:26;101652.78;;;11.06;100.00
69528;BME280;57136;51.986;4.468;2023-01-06T02:45:28;101628.50;;;11.11;100.00
69528;BME280;57136;51.986;4.468;2023-01-06T02:48:39;101624.13;;;11.08;100.00
69528;BME280;57136;51.986;4.468;2023-01-06T02:51:23;101624.09;;;11.05;100.00
69528;BME280;57136;51.986;4.468;2023-01-06T02:57:28;101614.47;;;11.01;100.00
69528;BME280;57136;51.986;4.468;2023-01-06T03:02:32;101613.91;;;11.23;100.00
69528;BME280;57136;51.986;4.468;2023-01-06T03:05:01;101601.50;;;11.07;100.00
69528;BME280;57136;51.986;4.468;2023-01-06T03:07:30;101603.00;;;10.91;100.00
69528;BME280;57136;51.986;4.468;2023-01-06T03:09:58;101603.81;;;10.85;100.00
69528;BME280;57136;51.986;4.468;2023-01-06T03:12:40;101603.88;;;10.91;100.00
69528;BME280;57136;51.986;4.468;2023-01-06T03:15:07;101589.16;;;10.95;100.00
69528;BME280;57136;51.986;4.468;2023-01-06T03:17:33;101585.91;;;11.12;100.00
69528;BME280;57136;51.986;4.468;2023-01-06T03:19:59;101595.50;;;11.11;100.00
69528;BME280;57136;51.986;4.468;2023-01-06T03:22:25;101592.78;;;11.05;100.00
69528;BME280;57136;51.986;4.468;2023-01-06T03:24:51;101590.38;;;11.19;100.00
69528;BME280;57136;51.986;4.468;2023-01-06T03:27:19;101584.25;;;11.17;100.00
69528;BME280;57136;51.986;4.468;2023-01-06T03:29:46;101576.03;;;10.89;100.00
69528;BME280;57136;51.986;4.468;2023-01-06T03:32:23;101569.16;;;10.94;100.00
69528;BME280;57136;51.986;4.468;2023-01-06T03:43:00;101559.50;;;10.88;100.00
69528;BME280;57136;51.986;4.468;2023-01-06T03:45:56;101548.25;;;10.91;100.00
69528;BME280;57136;51.986;4.468;2023-01-06T03:51:08;101551.75;;;10.93;100.00
69528;BME280;57136;51.986;4.468;2023-01-06T03:53:44;101545.75;;;10.97;100.00
69528;BME280;57136;51.986;4.468;2023-01-06T03:56:17;101544.09;;;11.04;100.00
69528;BME280;57136;51.986;4.468;2023-01-06T03:58:45;101551.91;;;11.05;100.00
69528;BME280;57136;51.986;4.468;2023-01-06T04:01:13;101547.63;;;11.09;100.00
69528;BME280;57136;51.986;4.468;2023-01-06T04:03:43;101543.94;;;10.93;100.00
69528;BME280;57136;51.986;4.468;2023-01-06T04:06:09;101543.84;;;10.87;100.00
69528;BME280;57136;51.986;4.468;2023-01-06T04:08:37;101529.84;;;10.80;100.00
69528;BME280;57136;51.986;4.468;2023-01-06T04:11:02;101539.19;;;10.66;100.00
69528;BME280;57136;51.986;4.468;2023-01-06T04:13:27;101531.19;;;10.55;100.00
69528;BME280;57136;51.986;4.468;2023-01-06T04:15:53;101528.63;;;10.56;100.00
69528;BME280;57136;51.986;4.468;2023-01-06T04:18:18;101514.31;;;10.88;100.00
69528;BME280;57136;51.986;4.468;2023-01-06T04:20:43;101521.31;;;10.93;100.00
69528;BME280;57136;51.986;4.468;2023-01-06T04:23:09;101510.97;;;10.98;100.00
69528;BME280;57136;51.986;4.468;2023-01-06T04:25:34;101521.88;;;10.71;100.00
69528;BME280;57136;51.986;4.468;2023-01-06T04:28:01;101508.78;;;10.66;100.00
69528;BME280;57136;51.986;4.468;2023-01-06T04:30:27;101516.91;;;10.88;100.00
69528;BME280;57136;51.986;4.468;2023-01-06T04:32:52;101510.78;;;10.86;100.00
69528;BME280;57136;51.986;4.468;2023-01-06T04:35:17;101515.28;;;10.96;100.00
69528;BME280;57136;51.986;4.468;2023-01-06T04:37:43;101517.91;;;10.98;100.00
69528;BME280;57136;51.986;4.468;2023-01-06T04:40:09;101509.81;;;10.77;100.00
69528;BME280;57136;51.986;4.468;2023-01-06T04:42:34;101507.38;;;10.90;100.00
69528;BME280;57136;51.986;4.468;2023-01-06T04:45:18;101506.47;;;10.86;100.00
69528;BME280;57136;51.986;4.468;2023-01-06T04:47:44;101510.00;;;10.90;100.00
69528;BME280;57136;51.986;4.468;2023-01-06T04:50:09;101504.72;;;10.88;100.00
69528;BME280;57136;51.986;4.468;2023-01-06T04:52:35;101498.47;;;10.72;100.00
69528;BME280;57136;51.986;4.468;2023-01-06T04:55:00;101493.94;;;10.62;100.00
69528;BME280;57136;51.986;4.468;2023-01-06T04:57:25;101492.84;;;10.44;100.00
69528;BME280;57136;51.986;4.468;2023-01-06T04:59:51;101484.88;;;10.38;100.00
69528;BME280;57136;51.986;4.468;2023-01-06T05:02:16;101489.09;;;10.30;100.00
69528;BME280;57136;51.986;4.468;2023-01-06T05:04:41;101486.44;;;10.27;100.00
69528;BME280;57136;51.986;4.468;2023-01-06T05:07:06;101476.03;;;10.28;100.00
69528;BME280;57136;51.986;4.468;2023-01-06T05:09:32;101482.72;;;10.12;100.00
69528;BME280;57136;51.986;4.468;2023-01-06T05:11:57;101485.34;;;10.12;100.00
69528;BME280;57136;51.986;4.468;2023-01-06T05:14:22;101487.09;;;10.15;100.00
69528;BME280;57136;51.986;4.468;2023-01-06T05:16:47;101476.97;;;10.33;100.00
69528;BME280;57136;51.986;4.468;2023-01-06T05:19:13;101452.97;;;9.98;100.00
69528;BME280;57136;51.986;4.468;2023-01-06T05:21:38;101478.47;;;10.17;100.00
69528;BME280;57136;51.986;4.468;2023-01-06T05:24:03;101472.25;;;10.09;100.00
69528;BME280;57136;51.986;4.468;2023-01-06T05:26:29;101475.59;;;10.00;100.00
69528;BME280;57136;51.986;4.468;2023-01-06T05:28:54;101482.50;;;10.00;100.00
69528;BME280;57136;51.986;4.468;2023-01-06T05:31:20;101482.91;;;10.25;100.00
69528;BME280;57136;51.986;4.468;2023-01-06T05:33:46;101473.34;;;10.22;100.00
69528;BME280;57136;51.986;4.468;2023-01-06T05:36:13;101482.78;;;10.15;100.00
69528;BME280;57136;51.986;4.468;2023-01-06T05:38:39;101478.31;;;10.10;100.00
69528;BME280;57136;51.986;4.468;2023-01-06T05:41:05;101466.84;;;9.97;100.00
69528;BME280;57136;51.986;4.468;2023-01-06T05:43:32;101490.56;;;10.14;100.00
69528;BME280;57136;51.986;4.468;2023-01-06T05:45:58;101477.44;;;10.08;100.00
69528;BME280;57136;51.986;4.468;2023-01-06T05:48:26;101486.31;;;10.19;100.00
69528;BME280;57136;51.986;4.468;2023-01-06T05:50:52;101483.66;;;10.16;100.00
69528;BME280;57136;51.986;4.468;2023-01-06T05:53:17;101491.50;;;10.17;100.00
69528;BME280;57136;51.986;4.468;2023-01-06T05:55:43;101488.34;;;10.37;100.00
69528;BME280;57136;51.986;4.468;2023-01-06T05:58:08;101489.03;;;10.27;100.00
69528;BME280;57136;51.986;4.468;2023-01-06T06:00:33;101491.41;;;10.11;100.00
69528;BME280;57136;51.986;4.468;2023-01-06T06:02:59;101488.13;;;10.25;100.00
69528;BME280;57136;51.986;4.468;2023-01-06T06:05:24;101488.78;;;10.11;100.00
69528;BME280;57136;51.986;4.468;2023-01-06T06:07:53;101492.19;;;10.07;100.00
69528;BME280;57136;51.986;4.468;2023-01-06T06:10:19;101499.22;;;10.11;100.00
69528;BME280;57136;51.986;4.468;2023-01-06T06:12:45;101495.34;;;9.90;100.00
69528;BME280;57136;51.986;4.468;2023-01-06T06:15:10;101504.41;;;10.11;100.00
69528;BME280;57136;51.986;4.468;2023-01-06T06:17:35;101511.69;;;10.31;100.00
69528;BME280;57136;51.986;4.468;2023-01-06T06:20:00;101511.47;;;10.18;100.00
69528;BME280;57136;51.986;4.468;2023-01-06T06:22:27;101506.25;;;10.17;100.00
69528;BME280;57136;51.986;4.468;2023-01-06T06:24:52;101529.91;;;10.31;100.00
69528;BME280;57136;51.986;4.468;2023-01-06T06:27:18;101542.34;;;9.97;100.00
69528;BME280;57136;51.986;4.468;2023-01-06T06:29:43;101536.22;;;9.93;100.00
69528;BME280;57136;51.986;4.468;2023-01-06T06:32:08;101539.03;;;10.05;100.00
69528;BME280;57136;51.986;4.468;2023-01-06T06:34:34;101555.25;;;9.90;100.00
69528;BME280;57136;51.986;4.468;2023-01-06T06:37:00;101563.88;;;9.86;100.00
69528;BME280;57136;51.986;4.468;2023-01-06T06:39:26;101557.25;;;10.04;100.00
69528;BME280;57136;51.986;4.468;2023-01-06T06:41:51;101561.16;;;9.82;100.00
69528;BME280;57136;51.986;4.468;2023-01-06T06:44:16;101557.75;;;9.86;100.00
69528;BME280;57136;51.986;4.468;2023-01-06T06:46:42;101570.38;;;10.12;100.00
69528;BME280;57136;51.986;4.468;2023-01-06T06:49:07;101564.22;;;10.07;100.00
69528;BME280;57136;51.986;4.468;2023-01-06T06:51:32;101577.34;;;10.13;100.00
69528;BME280;57136;51.986;4.468;2023-01-06T06:53:58;101581.84;;;10.22;100.00
69528;BME280;57136;51.986;4.468;2023-01-06T06:56:23;101579.16;;;10.15;100.00
69528;BME280;57136;51.986;4.468;2023-01-06T06:58:49;101584.38;;;10.18;100.00
69528;BME280;57136;51.986;4.468;2023-01-06T07:01:18;101584.31;;;10.14;100.00
69528;BME280;57136;51.986;4.468;2023-01-06T07:03:44;101593.13;;;10.20;100.00
69528;BME280;57136;51.986;4.468;2023-01-06T07:06:11;101587.94;;;10.22;100.00
69528;BME280;57136;51.986;4.468;2023-01-06T07:08:37;101593.78;;;10.56;100.00
69528;BME280;57136;51.986;4.468;2023-01-06T07:11:03;101602.09;;;10.37;100.00
69528;BME280;57136;51.986;4.468;2023-01-06T07:13:29;101602.00;;;10.30;100.00
69528;BME280;57136;51.986;4.468;2023-01-06T07:15:55;101604.91;;;10.46;100.00
69528;BME280;57136;51.986;4.468;2023-01-06T07:18:20;101617.63;;;10.30;100.00
69528;BME280;57136;51.986;4.468;2023-01-06T07:20:47;101627.44;;;10.44;100.00
69528;BME280;57136;51.986;4.468;2023-01-06T07:23:14;101616.94;;;10.39;100.00
69528;BME280;57136;51.986;4.468;2023-01-06T07:25:39;101629.91;;;10.38;100.00
69528;BME280;57136;51.986;4.468;2023-01-06T07:28:04;101631.84;;;10.48;100.00
69528;BME280;57136;51.986;4.468;2023-01-06T07:30:32;101623.97;;;10.43;100.00
69528;BME280;57136;51.986;4.468;2023-01-06T07:32:57;101638.50;;;10.32;100.00
69528;BME280;57136;51.986;4.468;2023-01-06T07:35:23;101642.00;;;10.35;100.00
69528;BME280;57136;51.986;4.468;2023-01-06T07:37:48;101643.88;;;10.40;100.00
69528;BME280;57136;51.986;4.468;2023-01-06T07:40:14;101657.63;;;10.34;100.00
69528;BME280;57136;51.986;4.468;2023-01-06T07:42:39;101647.22;;;10.34;100.00
69528;BME280;57136;51.986;4.468;2023-01-06T07:45:05;101656.59;;;10.26;100.00
69528;BME280;57136;51.986;4.468;2023-01-06T07:47:32;101655.94;;;10.38;100.00
69528;BME280;57136;51.986;4.468;2023-01-06T07:49:57;101668.91;;;10.33;100.00
69528;BME280;57136;51.986;4.468;2023-01-06T07:52:22;101658.78;;;10.04;100.00
69528;BME280;57136;51.986;4.468;2023-01-06T07:54:47;101658.88;;;10.09;100.00
69528;BME280;57136;51.986;4.468;2023-01-06T07:57:13;101660.69;;;10.13;100.00
69528;BME280;57136;51.986;4.468;2023-01-06T07:59:38;101657.16;;;10.09;100.00
69528;BME280;57136;51.986;4.468;2023-01-06T08:02:03;101663.16;;;10.03;100.00
69528;BME280;57136;51.986;4.468;2023-01-06T08:04:29;101660.50;;;10.02;100.00
69528;BME280;57136;51.986;4.468;2023-01-06T08:06:54;101675.13;;;9.97;100.00
69528;BME280;57136;51.986;4.468;2023-01-06T08:09:20;101689.00;;;9.96;100.00
69528;BME280;57136;51.986;4.468;2023-01-06T08:11:45;101696.78;;;9.94;100.00
69528;BME280;57136;51.986;4.468;2023-01-06T08:14:11;101707.38;;;10.02;100.00
69528;BME280;57136;51.986;4.468;2023-01-06T08:16:40;101714.06;;;9.90;100.00
69528;BME280;57136;51.986;4.468;2023-01-06T08:19:05;101726.31;;;9.95;100.00
69528;BME280;57136;51.986;4.468;2023-01-06T08:21:30;101732.03;;;9.78;100.00
69528;BME280;57136;51.986;4.468;2023-01-06T08:23:56;101732.66;;;9.68;100.00
69528;BME280;57136;51.986;4.468;2023-01-06T08:26:21;101737.16;;;9.75;100.00
69528;BME280;57136;51.986;4.468;2023-01-06T08:28:47;101746.66;;;9.73;100.00
69528;BME280;57136;51.986;4.468;2023-01-06T08:31:14;101751.66;;;9.64;100.00
69528;BME280;57136;51.986;4.468;2023-01-06T08:33:40;101745.44;;;9.57;100.00
69528;BME280;57136;51.986;4.468;2023-01-06T08:36:08;101749.13;;;9.67;100.00
69528;BME280;57136;51.986;4.468;2023-01-06T08:38:35;101749.00;;;9.61;100.00
69528;BME280;57136;51.986;4.468;2023-01-06T08:41:04;101745.72;;;9.69;100.00
69528;BME280;57136;51.986;4.468;2023-01-06T08:43:29;101743.91;;;9.65;100.00
69528;BME280;57136;51.986;4.468;2023-01-06T08:46:00;101752.94;;;9.81;100.00
69528;BME280;57136;51.986;4.468;2023-01-06T08:48:25;101755.84;;;9.97;100.00
69528;BME280;57136;51.986;4.468;2023-01-06T08:50:51;101751.63;;;10.02;100.00
69528;BME280;57136;51.986;4.468;2023-01-06T08:53:16;101759.22;;;9.93;100.00
69528;BME280;57136;51.986;4.468;2023-01-06T08:55:42;101763.28;;;9.78;100.00
69528;BME280;57136;51.986;4.468;2023-01-06T08:58:08;101755.28;;;9.70;100.00
69528;BME280;57136;51.986;4.468;2023-01-06T09:00:39;101751.31;;;9.86;100.00
69528;BME280;57136;51.986;4.468;2023-01-06T09:03:05;101765.19;;;9.85;100.00
69528;BME280;57136;51.986;4.468;2023-01-06T09:05:30;101768.94;;;10.00;100.00
69528;BME280;57136;51.986;4.468;2023-01-06T09:07:56;101760.16;;;9.95;100.00
69528;BME280;57136;51.986;4.468;2023-01-06T09:10:21;101771.28;;;10.27;100.00
69528;BME280;57136;51.986;4.468;2023-01-06T09:12:47;101779.50;;;10.46;100.00
69528;BME280;57136;51.986;4.468;2023-01-06T09:15:12;101789.28;;;10.58;100.00
69528;BME280;57136;51.986;4.468;2023-01-06T09:17:38;101791.97;;;10.62;100.00
69528;BME280;57136;51.986;4.468;2023-01-06T09:20:04;101799.56;;;10.96;99.75
69528;BME280;57136;51.986;4.468;2023-01-06T09:22:30;101801.91;;;11.31;97.44
69528;BME280;57136;51.986;4.468;2023-01-06T09:24:55;101814.44;;;11.52;94.91
69528;BME280;57136;51.986;4.468;2023-01-06T09:27:20;101820.50;;;11.50;94.68
69528;BME280;57136;51.986;4.468;2023-01-06T09:29:46;101816.88;;;11.43;94.58
69528;BME280;57136;51.986;4.468;2023-01-06T09:32:11;101822.31;;;11.54;94.19
69528;BME280;57136;51.986;4.468;2023-01-06T09:34:37;101819.81;;;11.62;94.09
69528;BME280;57136;51.986;4.468;2023-01-06T09:37:02;101817.09;;;11.54;92.54
69528;BME280;57136;51.986;4.468;2023-01-06T09:39:27;101811.47;;;11.32;93.60
69528;BME280;57136;51.986;4.468;2023-01-06T09:44:28;101810.78;;;11.43;94.74
69528;BME280;57136;51.986;4.468;2023-01-06T09:46:56;101818.31;;;11.79;92.38
69528;BME280;57136;51.986;4.468;2023-01-06T09:51:56;101822.44;;;12.93;85.35
69528;BME280;57136;51.986;4.468;2023-01-06T09:54:30;101819.34;;;13.36;83.46
69528;BME280;57136;51.986;4.468;2023-01-06T09:57:09;101825.69;;;13.64;80.83
69528;BME280;57136;51.986;4.468;2023-01-06T09:59:48;101827.81;;;14.26;78.36
69528;BME280;57136;51.986;4.468;2023-01-06T10:02:32;101828.94;;;14.76;75.98
69528;BME280;57136;51.986;4.468;2023-01-06T10:05:00;101827.28;;;15.15;73.71
69528;BME280;57136;51.986;4.468;2023-01-06T10:07:38;101824.63;;;15.01;73.91
69528;BME280;57136;51.986;4.468;2023-01-06T10:10:13;101829.03;;;15.44;72.25
69528;BME280;57136;51.986;4.468;2023-01-06T10:12:50;101830.78;;;15.51;70.47
69528;BME280;57136;51.986;4.468;2023-01-06T10:15:28;101836.91;;;15.39;69.32
69528;BME280;57136;51.986;4.468;2023-01-06T10:18:20;101850.91;;;15.20;70.65
69528;BME280;57136;51.986;4.468;2023-01-06T10:21:10;101847.41;;;15.50;70.55
69528;BME280;57136;51.986;4.468;2023-01-06T10:26:30;101843.72;;;14.58;72.23
69528;BME280;57136;51.986;4.468;2023-01-06T10:29:03;101841.59;;;13.87;76.11
69528;BME280;57136;51.986;4.468;2023-01-06T10:31:32;101842.59;;;14.13;75.52
69528;BME280;57136;51.986;4.468;2023-01-06T10:34:02;101847.06;;;14.28;75.10
69528;BME280;57136;51.986;4.468;2023-01-06T10:36:31;101849.56;;;14.04;77.11
69528;BME280;57136;51.986;4.468;2023-01-06T10:38:59;101848.00;;;14.34;75.75
69528;BME280;57136;51.986;4.468;2023-01-06T10:41:54;101846.97;;;14.07;75.65
69528;BME280;57136;51.986;4.468;2023-01-06T10:44:41;101838.38;;;14.39;74.48
69528;BME280;57136;51.986;4.468;2023-01-06T10:47:11;101836.56;;;14.24;75.15
69528;BME280;57136;51.986;4.468;2023-01-06T10:49:39;101836.53;;;14.20;76.54
69528;BME280;57136;51.986;4.468;2023-01-06T10:52:04;101841.53;;;13.80;76.77
69528;BME280;57136;51.986;4.468;2023-01-06T10:54:32;101838.75;;;13.56;77.52
69528;BME280;57136;51.986;4.468;2023-01-06T10:57:10;101842.09;;;13.41;79.11
69528;BME280;57136;51.986;4.468;2023-01-06T11:00:14;101843.34;;;12.93;82.24
69528;BME280;57136;51.986;4.468;2023-01-06T11:02:51;101837.91;;;12.06;87.43
69528;BME280;57136;51.986;4.468;2023-01-06T11:05:28;101838.00;;;12.11;87.40
69528;BME280;57136;51.986;4.468;2023-01-06T11:08:01;101840.72;;;12.20;88.56
69528;BME280;57136;51.986;4.468;2023-01-06T11:10:30;101837.47;;;12.38;88.25
69528;BME280;57136;51.986;4.468;2023-01-06T11:12:59;101836.75;;;12.49;85.87
69528;BME280;57136;51.986;4.468;2023-01-06T11:15:45;101846.88;;;12.98;84.63
69528;BME280;57136;51.986;4.468;2023-01-06T11:18:24;101845.97;;;12.93;85.41
69528;BME280;57136;51.986;4.468;2023-01-06T11:21:02;101841.81;;;13.13;83.85
69528;BME280;57136;51.986;4.468;2023-01-06T11:23:28;101837.13;;;12.80;84.83
69528;BME280;57136;51.986;4.468;2023-01-06T11:26:04;101825.47;;;12.54;84.48
69528;BME280;57136;51.986;4.468;2023-01-06T11:28:30;101822.47;;;12.22;84.84
69528;BME280;57136;51.986;4.468;2023-01-06T11:31:20;101827.72;;;12.25;85.60
69528;BME280;57136;51.986;4.468;2023-01-06T11:33:52;101831.97;;;12.87;82.58
69528;BME280;57136;51.986;4.468;2023-01-06T11:36:21;101827.59;;;12.88;80.20
69528;BME280;57136;51.986;4.468;2023-01-06T11:38:51;101826.66;;;12.81;79.44
69528;BME280;57136;51.986;4.468;2023-01-06T11:41:26;101819.22;;;13.22;77.95
69528;BME280;57136;51.986;4.468;2023-01-06T11:43:54;101821.41;;;12.80;79.75
69528;BME280;57136;51.986;4.468;2023-01-06T11:46:22;101823.63;;;13.29;78.56
69528;BME280;57136;51.986;4.468;2023-01-06T11:48:58;101815.50;;;13.01;80.43
69528;BME280;57136;51.986;4.468;2023-01-06T11:54:21;101810.44;;;12.36;79.42
69528;BME280;57136;51.986;4.468;2023-01-06T11:59:58;101798.47;;;12.57;79.22
69528;BME280;57136;51.986;4.468;2023-01-06T12:02:35;101805.09;;;13.06;78.75
69528;BME280;57136;51.986;4.468;2023-01-06T12:05:10;101799.53;;;13.67;76.01
69528;BME280;57136;51.986;4.468;2023-01-06T12:07:49;101797.19;;;14.14;73.44
69528;BME280;57136;51.986;4.468;2023-01-06T12:10:20;101795.53;;;14.41;71.61
69528;BME280;57136;51.986;4.468;2023-01-06T12:12:47;101801.44;;;13.88;72.76
69528;BME280;57136;51.986;4.468;2023-01-06T12:15:14;101797.22;;;14.23;71.28
69528;BME280;57136;51.986;4.468;2023-01-06T12:17:53;101805.25;;;14.57;70.38
69528;BME280;57136;51.986;4.468;2023-01-06T12:20:23;101811.41;;;14.72;70.31
69528;BME280;57136;51.986;4.468;2023-01-06T12:22:59;101808.56;;;14.17;69.56
69528;BME280;57136;51.986;4.468;2023-01-06T12:25:32;101811.13;;;14.03;69.24
69528;BME280;57136;51.986;4.468;2023-01-06T12:30:47;101815.16;;;13.52;70.99
69528;BME280;57136;51.986;4.468;2023-01-06T12:35:53;101820.25;;;13.41;70.96
69528;BME280;57136;51.986;4.468;2023-01-06T12:38:38;101812.44;;;13.44;71.31
69528;BME280;57136;51.986;4.468;2023-01-06T12:41:34;101813.16;;;13.29;71.75
69528;BME280;57136;51.986;4.468;2023-01-06T12:49:25;101799.13;;;14.64;66.51
69528;BME280;57136;51.986;4.468;2023-01-06T12:51:55;101797.19;;;14.17;68.14
69528;BME280;57136;51.986;4.468;2023-01-06T12:54:30;101798.19;;;14.44;67.26
69528;BME280;57136;51.986;4.468;2023-01-06T13:10:04;101788.25;;;13.74;69.69
69528;BME280;57136;51.986;4.468;2023-01-06T13:15:35;101791.69;;;12.73;73.05
69528;BME280;57136;51.986;4.468;2023-01-06T13:21:14;101791.53;;;12.57;74.60
69528;BME280;57136;51.986;4.468;2023-01-06T13:26:17;101789.94;;;12.01;76.57
69528;BME280;57136;51.986;4.468;2023-01-06T13:34:45;101806.06;;;11.74;79.66
69528;BME280;57136;51.986;4.468;2023-01-06T13:37:25;101812.34;;;11.88;80.79
69528;BME280;57136;51.986;4.468;2023-01-06T13:40:05;101799.63;;;11.51;82.01
69528;BME280;57136;51.986;4.468;2023-01-06T13:45:17;101793.72;;;11.63;81.95
69528;BME280;57136;51.986;4.468;2023-01-06T13:47:45;101792.63;;;11.49;82.03
69528;BME280;57136;51.986;4.468;2023-01-06T13:50:12;101805.00;;;11.61;81.45
69528;BME280;57136;51.986;4.468;2023-01-06T13:52:38;101795.66;;;11.77;80.46
69528;BME280;57136;51.986;4.468;2023-01-06T13:55:27;101781.00;;;11.88;80.10
69528;BME280;57136;51.986;4.468;2023-01-06T13:57:52;101784.72;;;12.01;80.40
69528;BME280;57136;51.986;4.468;2023-01-06T14:00:20;101790.78;;;12.68;78.79
69528;BME280;57136;51.986;4.468;2023-01-06T14:02:59;101764.03;;;12.98;77.95
69528;BME280;57136;51.986;4.468;2023-01-06T14:07:57;101780.50;;;12.88;76.53
69528;BME280;57136;51.986;4.468;2023-01-06T14:12:55;101787.72;;;13.14;75.30
69528;BME280;57136;51.986;4.468;2023-01-06T14:15:31;101785.56;;;12.71;74.50
69528;BME280;57136;51.986;4.468;2023-01-06T14:17:59;101781.41;;;12.16;76.55
69528;BME280;57136;51.986;4.468;2023-01-06T14:20:34;101784.41;;;12.46;76.96
69528;BME280;57136;51.986;4.468;2023-01-06T14:23:05;101786.25;;;12.54;77.16
69528;BME280;57136;51.986;4.468;2023-01-06T14:25:48;101780.72;;;12.29;78.21
69528;BME280;57136;51.986;4.468;2023-01-06T14:28:26;101775.88;;;11.93;79.98
69528;BME280;57136;51.986;4.468;2023-01-06T14:31:57;101770.38;;;11.73;81.61